Time;durP1;ratioP1;P1;durP2;ratioP2;P2;SDS_P1;SDS_P2;PMS_P1;PMS_P2;Temp;Humidity;BMP_temperature;BMP_pressure;BME280_temperature;BME280_humidity;BME280_pressure;Samples;Min_cycle;Max_cycle;Signal;HPM_P1;HPM_P2
2023/04/20 00:01:45;;;;;;;7.53;3.60;;;5.40;99.90;;;;;;5052365;28;20288;-56
2023/04/20 00:04:15;;;;;;;5.60;3.30;;;5.40;99.90;;;;;;5052447;28;20638;-56
2023/04/20 00:06:42;;;;;;;3.30;3.00;;;5.30;99.90;;;;;;5052340;28;20209;-58
2023/04/20 00:09:10;;;;;;;5.73;3.13;;;5.30;99.90;;;;;;5053558;28;20205;-55
2023/04/20 00:11:37;;;;;;;5.33;3.40;;;5.20;99.90;;;;;;5053481;28;20202;-55
2023/04/20 00:14:04;;;;;;;5.17;3.50;;;5.20;99.90;;;;;;5053436;28;20230;-55
2023/04/20 00:16:31;;;;;;;3.70;2.93;;;5.20;99.90;;;;;;5053365;28;20209;-55
2023/04/20 00:18:59;;;;;;;4.00;3.03;;;5.20;99.90;;;;;;5053185;28;20230;-55
2023/04/20 00:21:28;;;;;;;4.17;2.97;;;5.20;99.90;;;;;;5053467;28;20228;-55
2023/04/20 00:23:54;;;;;;;4.73;3.10;;;5.20;99.90;;;;;;5053363;28;20719;-55
2023/04/20 00:26:21;;;;;;;4.83;3.30;;;5.20;99.90;;;;;;5053560;28;20212;-55
2023/04/20 00:28:50;;;;;;;4.37;3.17;;;5.20;99.90;;;;;;5053430;28;20289;-55
2023/04/20 00:31:17;;;;;;;7.40;3.20;;;5.20;99.90;;;;;;5053130;28;20210;-55
2023/04/20 00:33:44;;;;;;;4.40;3.23;;;5.20;99.90;;;;;;5053002;28;20228;-55
2023/04/20 00:36:11;;;;;;;8.73;3.63;;;5.20;99.90;;;;;;5053063;28;20550;-55
2023/04/20 00:38:39;;;;;;;6.17;3.47;;;5.20;99.90;;;;;;5052903;28;20230;-55
2023/04/20 00:41:06;;;;;;;3.80;3.40;;;5.20;99.90;;;;;;5053223;28;20214;-55
2023/04/20 00:43:32;;;;;;;6.10;3.33;;;5.20;99.90;;;;;;5053465;28;20232;-55
2023/04/20 00:45:59;;;;;;;4.40;3.07;;;5.10;99.90;;;;;;5053064;28;20236;-55
2023/04/20 00:48:26;;;;;;;6.10;3.40;;;5.10;99.90;;;;;;5052909;28;20284;-55
2023/04/20 00:50:53;;;;;;;6.00;3.27;;;5.10;99.90;;;;;;5052547;28;20209;-55
2023/04/20 00:53:20;;;;;;;4.43;3.20;;;5.10;99.90;;;;;;5053104;28;20225;-55
2023/04/20 00:55:50;;;;;;;4.90;3.37;;;5.10;99.90;;;;;;5052415;28;20731;-55
2023/04/20 00:58:17;;;;;;;4.90;3.23;;;5.10;99.90;;;;;;5052530;28;20248;-55
2023/04/20 01:00:44;;;;;;;8.00;3.50;;;5.10;99.90;;;;;;5052575;28;20228;-56
2023/04/20 01:03:10;;;;;;;6.73;3.40;;;5.10;99.90;;;;;;5052672;28;20229;-55
2023/04/20 01:05:37;;;;;;;4.13;3.07;;;5.00;99.90;;;;;;5052647;28;20220;-55
2023/04/20 01:08:04;;;;;;;5.50;2.97;;;5.00;99.90;;;;;;5052586;28;20227;-55
2023/04/20 01:10:31;;;;;;;4.33;3.37;;;4.90;99.90;;;;;;5052139;28;20209;-55
2023/04/20 01:12:59;;;;;;;4.13;3.00;;;4.90;99.90;;;;;;5052273;28;20237;-55
2023/04/20 01:15:26;;;;;;;4.53;3.70;;;4.90;99.90;;;;;;5052595;28;20209;-55
2023/04/20 01:17:53;;;;;;;3.70;3.40;;;4.90;99.90;;;;;;5052457;28;20468;-55
2023/04/20 01:20:22;;;;;;;3.53;3.23;;;4.90;99.90;;;;;;5052442;28;20202;-55
2023/04/20 01:22:53;;;;;;;4.00;3.23;;;4.90;99.90;;;;;;5052231;28;20779;-55
2023/04/20 01:25:20;;;;;;;4.53;3.30;;;4.90;99.90;;;;;;5052456;28;20237;-55
2023/04/20 01:27:47;;;;;;;4.73;3.00;;;4.80;99.90;;;;;;5052292;28;20206;-55
2023/04/20 01:30:16;;;;;;;5.87;3.73;;;4.70;99.90;;;;;;5052382;28;20237;-55
2023/04/20 01:32:43;;;;;;;5.73;3.70;;;4.70;99.90;;;;;;5052530;28;20233;-56
2023/04/20 01:35:10;;;;;;;3.97;3.37;;;4.60;99.90;;;;;;5052808;28;20190;-55
2023/04/20 01:37:36;;;;;;;4.27;3.83;;;4.60;99.90;;;;;;5052474;28;20665;-55
2023/04/20 01:40:06;;;;;;;5.73;3.70;;;4.50;99.90;;;;;;5052118;28;20262;-55
2023/04/20 01:42:33;;;;;;;4.83;3.70;;;4.50;99.90;;;;;;5052118;28;20213;-55
2023/04/20 01:44:59;;;;;;;6.33;3.63;;;4.50;99.90;;;;;;5052188;28;20213;-55
2023/04/20 01:47:26;;;;;;;4.03;3.20;;;4.50;99.90;;;;;;5052287;28;20672;-55
2023/04/20 01:49:53;;;;;;;5.57;3.57;;;4.40;99.90;;;;;;5052103;28;20205;-56
2023/04/20 01:52:20;;;;;;;3.97;3.30;;;4.40;99.90;;;;;;5051701;28;20259;-55
2023/04/20 01:54:47;;;;;;;4.57;3.53;;;4.40;99.90;;;;;;5051835;28;20202;-55
2023/04/20 01:57:15;;;;;;;6.17;3.70;;;4.30;99.90;;;;;;5051875;28;20205;-55
2023/04/20 01:59:42;;;;;;;3.83;3.27;;;4.40;99.90;;;;;;5051914;28;20248;-55
2023/04/20 02:02:08;;;;;;;3.40;3.10;;;4.30;99.90;;;;;;5051721;28;20259;-55
2023/04/20 02:04:35;;;;;;;5.37;3.10;;;4.30;99.90;;;;;;5051706;28;20639;-54
2023/04/20 02:07:02;;;;;;;5.47;3.63;;;4.30;99.90;;;;;;5051828;28;20201;-56
2023/04/20 02:09:29;;;;;;;5.13;3.60;;;4.30;99.90;;;;;;5055692;28;20553;-55
2023/04/20 02:11:56;;;;;;;4.23;3.47;;;4.20;99.90;;;;;;5055487;28;20206;-55
2023/04/20 02:14:25;;;;;;;4.03;3.27;;;4.20;99.90;;;;;;5055610;28;20221;-55
2023/04/20 02:16:52;;;;;;;4.47;3.57;;;4.00;99.90;;;;;;5055915;28;20218;-53
2023/04/20 02:19:20;;;;;;;5.37;3.30;;;3.90;99.90;;;;;;5055423;28;20757;-54
2023/04/20 02:21:46;;;;;;;5.17;3.70;;;3.80;99.90;;;;;;5055311;28;20666;-53
2023/04/20 02:24:13;;;;;;;6.37;3.83;;;3.80;99.90;;;;;;5055357;28;20230;-54
2023/04/20 02:26:40;;;;;;;7.77;3.80;;;3.80;99.90;;;;;;5055582;28;20205;-53
2023/04/20 02:29:07;;;;;;;5.40;4.10;;;3.80;99.90;;;;;;5055570;28;20205;-53
2023/04/20 02:31:35;;;;;;;4.73;3.87;;;3.80;99.90;;;;;;5055139;28;20296;-54
2023/04/20 02:34:04;;;;;;;7.37;3.67;;;3.80;99.90;;;;;;5054875;28;20721;-53
2023/04/20 02:36:31;;;;;;;5.77;3.70;;;3.90;99.90;;;;;;5055612;28;20213;-55
2023/04/20 02:38:58;;;;;;;6.07;4.00;;;3.90;99.90;;;;;;5055466;28;20225;-53
2023/04/20 02:41:24;;;;;;;6.63;3.50;;;3.90;99.90;;;;;;5055318;28;20205;-53
2023/04/20 02:43:51;;;;;;;5.27;3.57;;;3.90;99.90;;;;;;5055320;28;20221;-54
2023/04/20 02:46:18;;;;;;;5.30;3.20;;;3.90;99.90;;;;;;5055215;28;20235;-53
2023/04/20 02:48:46;;;;;;;3.70;2.97;;;3.90;99.90;;;;;;5055090;28;20205;-53
2023/04/20 02:51:13;;;;;;;5.03;3.50;;;3.90;99.90;;;;;;5054744;28;20202;-53
2023/04/20 02:53:40;;;;;;;4.40;3.17;;;3.90;99.90;;;;;;5055039;28;20312;-53
2023/04/20 02:56:07;;;;;;;5.53;3.80;;;3.90;99.90;;;;;;5054983;28;20209;-53
2023/04/20 02:58:34;;;;;;;6.73;4.73;;;3.90;99.90;;;;;;5054756;28;20688;-54
2023/04/20 03:01:02;;;;;;;9.10;4.50;;;3.80;99.90;;;;;;5054738;28;20210;-53
2023/04/20 03:03:30;;;;;;;4.60;3.77;;;3.70;99.90;;;;;;5054995;28;20400;-53
2023/04/20 03:05:58;;;;;;;4.27;3.10;;;3.50;99.90;;;;;;5054638;28;20712;-53
2023/04/20 03:08:25;;;;;;;4.43;3.40;;;3.50;99.90;;;;;;5054823;28;20673;-53
2023/04/20 03:10:51;;;;;;;5.30;3.43;;;3.30;99.90;;;;;;5054716;28;20225;-53
2023/04/20 03:13:18;;;;;;;3.43;3.03;;;3.10;99.90;;;;;;5054838;28;20226;-54
2023/04/20 03:15:45;;;;;;;5.20;3.37;;;3.00;99.90;;;;;;5054781;28;20232;-53
2023/04/20 03:18:12;;;;;;;4.00;3.17;;;3.00;99.90;;;;;;5054460;28;20691;-53
2023/04/20 03:20:39;;;;;;;5.40;3.40;;;3.00;99.90;;;;;;5053985;28;20228;-54
2023/04/20 03:23:07;;;;;;;6.97;3.77;;;2.90;99.90;;;;;;5054723;28;20222;-54
2023/04/20 03:25:34;;;;;;;5.93;4.00;;;2.90;99.90;;;;;;5054769;28;20201;-54
2023/04/20 03:28:00;;;;;;;4.87;3.90;;;2.80;99.90;;;;;;5054382;28;20685;-54
2023/04/20 03:30:27;;;;;;;7.20;4.73;;;2.80;99.90;;;;;;5054834;28;20206;-54
2023/04/20 03:32:54;;;;;;;5.80;4.80;;;2.70;99.90;;;;;;5054898;28;20273;-54
2023/04/20 03:35:21;;;;;;;5.70;4.43;;;2.70;99.90;;;;;;5055183;28;20205;-53
2023/04/20 03:37:48;;;;;;;7.93;5.00;;;2.70;99.90;;;;;;5054883;28;20212;-53
2023/04/20 03:40:16;;;;;;;6.97;4.93;;;2.60;99.90;;;;;;5054282;28;20321;-54
2023/04/20 03:42:43;;;;;;;9.13;5.30;;;2.50;99.90;;;;;;5054809;28;20225;-54
2023/04/20 03:45:10;;;;;;;8.83;4.93;;;2.50;99.90;;;;;;5054721;28;20262;-54
2023/04/20 03:47:37;;;;;;;9.77;6.33;;;2.50;99.90;;;;;;5054693;28;20209;-54
2023/04/20 03:50:04;;;;;;;6.30;4.17;;;2.50;99.90;;;;;;5054286;28;20576;-53
2023/04/20 03:52:31;;;;;;;5.03;4.13;;;2.50;99.90;;;;;;5054216;28;20221;-55
2023/04/20 03:54:58;;;;;;;4.60;3.80;;;2.50;99.90;;;;;;5054254;28;20224;-55
2023/04/20 03:57:26;;;;;;;5.03;3.90;;;2.50;99.90;;;;;;5054152;28;20216;-55
2023/04/20 03:59:53;;;;;;;7.30;3.97;;;2.50;99.90;;;;;;5054204;28;20275;-55
2023/04/20 04:02:21;;;;;;;4.47;3.67;;;2.40;99.90;;;;;;5054054;28;20202;-55
2023/04/20 04:04:47;;;;;;;7.17;3.90;;;2.30;99.90;;;;;;5054097;28;20232;-55
2023/04/20 04:07:14;;;;;;;4.77;3.80;;;2.30;99.90;;;;;;5054340;28;20673;-56
2023/04/20 04:09:41;;;;;;;7.60;4.30;;;2.40;99.90;;;;;;5053971;28;20202;-55
2023/04/20 04:12:08;;;;;;;5.60;4.50;;;2.50;99.90;;;;;;5053794;28;20205;-54
2023/04/20 04:14:36;;;;;;;6.17;4.37;;;2.50;99.90;;;;;;5053775;28;20229;-55
2023/04/20 04:17:03;;;;;;;8.67;4.53;;;2.60;99.90;;;;;;5054275;28;20214;-55
2023/04/20 04:19:29;;;;;;;6.80;4.83;;;2.60;99.90;;;;;;5053866;28;20317;-56
2023/04/20 04:21:56;;;;;;;6.50;4.80;;;2.60;99.90;;;;;;5053880;28;20580;-55
2023/04/20 04:24:23;;;;;;;5.97;4.17;;;2.60;99.90;;;;;;5054147;28;20226;-55
2023/04/20 04:26:49;;;;;;;6.40;4.70;;;2.60;99.90;;;;;;5054350;28;20236;-53
2023/04/20 04:29:16;;;;;;;5.50;3.90;;;2.60;99.90;;;;;;5054001;28;20680;-54
2023/04/20 04:31:44;;;;;;;6.50;4.03;;;2.60;99.90;;;;;;5053023;28;20213;-54
2023/04/20 04:34:12;;;;;;;4.03;3.63;;;2.50;99.90;;;;;;5053538;28;20332;-54
2023/04/20 04:36:39;;;;;;;6.27;5.20;;;2.50;99.90;;;;;;5053461;28;20205;-54
2023/04/20 04:39:05;;;;;;;7.33;4.47;;;2.60;99.90;;;;;;5053329;28;20205;-54
2023/04/20 04:41:32;;;;;;;4.17;3.77;;;2.60;99.90;;;;;;5052697;28;20719;-54
2023/04/20 04:43:59;;;;;;;4.83;3.80;;;2.60;99.90;;;;;;5052861;28;20802;-56
2023/04/20 04:46:27;;;;;;;8.17;4.40;;;2.60;99.90;;;;;;5052933;28;20209;-54
2023/04/20 04:48:55;;;;;;;6.37;5.07;;;2.60;99.90;;;;;;5052897;28;20661;-55
2023/04/20 04:51:22;;;;;;;4.73;3.83;;;2.60;99.90;;;;;;5052670;28;20284;-54
2023/04/20 04:53:49;;;;;;;5.10;3.93;;;2.60;99.90;;;;;;5052667;28;20233;-54
2023/04/20 04:56:17;;;;;;;6.57;3.63;;;2.70;99.90;;;;;;5052472;28;20284;-54
2023/04/20 04:58:44;;;;;;;5.23;3.87;;;2.70;99.90;;;;;;5052889;28;20210;-54
2023/04/20 05:01:11;;;;;;;7.30;4.00;;;2.70;99.90;;;;;;5052721;28;20291;-54
2023/04/20 05:03:38;;;;;;;8.30;4.13;;;2.70;99.90;;;;;;5052575;28;20638;-54
2023/04/20 05:06:06;;;;;;;5.00;3.83;;;2.80;99.90;;;;;;5052662;28;20209;-54
2023/04/20 05:08:33;;;;;;;6.80;4.87;;;2.80;99.90;;;;;;5052267;28;20214;-54
2023/04/20 05:11:00;;;;;;;5.10;3.97;;;2.80;99.90;;;;;;5052242;28;20220;-55
2023/04/20 05:13:27;;;;;;;5.53;4.30;;;2.90;99.90;;;;;;5051981;28;20240;-55
2023/04/20 05:15:54;;;;;;;5.90;4.13;;;3.00;99.90;;;;;;5052543;28;20205;-54
2023/04/20 05:18:20;;;;;;;4.87;4.37;;;3.00;99.90;;;;;;5052253;28;20301;-55
2023/04/20 05:20:47;;;;;;;7.87;4.07;;;3.00;99.90;;;;;;5051953;28;20221;-54
2023/04/20 05:23:16;;;;;;;6.30;4.07;;;3.00;99.90;;;;;;5052076;28;20312;-55
2023/04/20 05:25:43;;;;;;;6.10;4.50;;;3.00;99.90;;;;;;5052431;28;20201;-55
2023/04/20 05:28:09;;;;;;;8.30;4.23;;;3.20;99.90;;;;;;5052414;28;20213;-55
2023/04/20 05:30:36;;;;;;;5.03;4.13;;;3.40;99.90;;;;;;5051924;28;20646;-55
2023/04/20 05:33:03;;;;;;;8.67;4.70;;;3.50;99.90;;;;;;5051921;28;20240;-55
2023/04/20 05:35:30;;;;;;;6.00;4.07;;;3.70;99.90;;;;;;5052069;28;20258;-54
2023/04/20 05:37:59;;;;;;;5.80;4.70;;;3.80;99.90;;;;;;5051824;28;20210;-54
2023/04/20 05:40:27;;;;;;;7.23;4.90;;;4.00;99.90;;;;;;5051778;28;20232;-55
2023/04/20 05:42:54;;;;;;;7.57;5.03;;;4.20;99.90;;;;;;5051749;28;20226;-54
2023/04/20 05:45:21;;;;;;;10.60;6.03;;;4.50;99.90;;;;;;5052012;28;20205;-55
2023/04/20 05:47:54;;;;;;;8.27;5.00;;;4.80;99.90;;;;;;5051995;28;20304;-55
2023/04/20 05:50:21;;;;;;;7.40;5.23;;;5.10;99.90;;;;;;5051610;28;20201;-55
2023/04/20 05:52:48;;;;;;;5.67;4.40;;;5.50;99.90;;;;;;5051836;28;20234;-55
2023/04/20 05:55:15;;;;;;;9.00;5.20;;;5.80;99.90;;;;;;5051529;28;20444;-58
2023/04/20 05:57:43;;;;;;;7.20;4.27;;;6.60;99.90;;;;;;5046437;28;20228;-57
2023/04/20 06:00:11;;;;;;;4.70;3.67;;;8.50;99.90;;;;;;5052631;28;20221;-57
2023/04/20 06:02:38;;;;;;;5.67;3.57;;;10.80;99.90;;;;;;5058366;28;20198;-58
2023/04/20 06:05:06;;;;;;;7.70;3.97;;;12.90;99.90;;;;;;5049795;28;20213;-57
2023/04/20 06:07:32;;;;;;;6.17;3.80;;;14.50;99.90;;;;;;5050262;28;20590;-59
2023/04/20 06:10:00;;;;;;;8.57;4.40;;;15.70;99.50;;;;;;5050864;28;20217;-58
2023/04/20 06:12:28;;;;;;;5.60;3.70;;;16.80;97.20;;;;;;5050534;28;20352;-58
2023/04/20 06:14:57;;;;;;;6.25;3.83;;;17.90;96.20;;;;;;5051105;28;20206;-58
2023/04/20 06:17:23;;;;;;;5.78;3.40;;;18.90;93.50;;;;;;5050252;28;20626;-59
2023/04/20 06:19:50;;;;;;;4.68;3.70;;;20.10;91.80;;;;;;5051886;28;20320;-58
2023/04/20 06:22:18;;;;;;;4.20;3.28;;;21.10;86.20;;;;;;5070496;28;20311;-59
2023/04/20 06:24:45;;;;;;;7.38;4.70;;;21.40;81.40;;;;;;5070845;28;20308;-57
2023/04/20 06:27:12;;;;;;;5.15;3.53;;;22.10;80.50;;;;;;5070251;28;20266;-57
2023/04/20 06:29:39;;;;;;;6.07;4.10;;;22.80;78.10;;;;;;5058339;28;20212;-56
2023/04/20 06:32:07;;;;;;;5.03;4.03;;;23.50;71.90;;;;;;5052495;28;20292;-65
2023/04/20 06:34:34;;;;;;;6.25;3.97;;;23.30;68.50;;;;;;5051712;28;20237;-64
2023/04/20 06:37:00;;;;;;;5.43;4.00;;;22.00;71.10;;;;;;5052851;28;20300;-63
2023/04/20 06:39:27;;;;;;;6.38;3.72;;;19.90;73.00;;;;;;5051395;28;20205;-59
2023/04/20 06:41:55;;;;;;;5.53;3.70;;;17.70;80.20;;;;;;5051636;28;20221;-64
2023/04/20 06:44:22;;;;;;;4.90;3.58;;;17.50;83.30;;;;;;5057492;28;20607;-60
2023/04/20 06:46:49;;;;;;;8.70;4.88;;;18.70;81.10;;;;;;5071946;28;20677;-62
2023/04/20 06:49:17;;;;;;;16.55;11.93;;;19.40;79.70;;;;;;5072094;28;20642;-61
2023/04/20 06:51:43;;;;;;;4.75;3.63;;;19.30;78.40;;;;;;5070932;28;20208;-58
2023/04/20 06:54:10;;;;;;;10.70;4.15;;;19.40;78.40;;;;;;5070841;28;20771;-58
2023/04/20 06:56:37;;;;;;;5.65;3.90;;;20.10;75.30;;;;;;5073368;28;20212;-58
2023/04/20 06:59:04;;;;;;;7.05;4.30;;;21.50;74.40;;;;;;5074206;28;20213;-58
2023/04/20 07:01:31;;;;;;;5.07;3.67;;;23.10;69.00;;;;;;5073700;28;20229;-59
2023/04/20 07:03:57;;;;;;;4.45;4.05;;;24.40;67.60;;;;;;5073773;28;20232;-59
2023/04/20 07:06:26;;;;;;;5.35;4.10;;;25.30;63.10;;;;;;5074208;28;20205;-59
2023/04/20 07:08:53;;;;;;;5.30;3.83;;;24.60;63.00;;;;;;5073360;28;20209;-59
2023/04/20 07:11:20;;;;;;;4.97;4.10;;;23.50;64.30;;;;;;5073242;28;20297;-59
2023/04/20 07:13:46;;;;;;;5.07;4.28;;;22.50;65.40;;;;;;5073292;28;20229;-59
2023/04/20 07:16:16;;;;;;;17.65;14.30;;;21.70;66.90;;;;;;5073616;28;20218;-59
2023/04/20 07:18:43;;;;;;;6.70;4.78;;;21.00;68.10;;;;;;5073302;28;20233;-59
2023/04/20 07:21:09;;;;;;;5.72;3.65;;;20.60;69.30;;;;;;5063334;28;20287;-59
2023/04/20 07:23:38;;;;;;;5.43;4.13;;;20.00;70.80;;;;;;5053228;28;20717;-59
2023/04/20 07:26:05;;;;;;;6.28;4.15;;;20.10;72.60;;;;;;5053184;28;20236;-59
2023/04/20 07:28:32;;;;;;;4.43;3.70;;;21.50;70.10;;;;;;5053440;28;20213;-59
2023/04/20 07:30:59;;;;;;;4.43;3.63;;;22.80;66.90;;;;;;5053344;28;20209;-59
2023/04/20 07:33:26;;;;;;;5.70;4.20;;;22.90;65.80;;;;;;5064441;28;20298;-59
2023/04/20 07:35:53;;;;;;;7.35;4.25;;;22.60;65.10;;;;;;5072914;28;20215;-59
2023/04/20 07:38:20;;;;;;;5.03;3.63;;;21.90;66.10;;;;;;5072973;28;20211;-59
2023/04/20 07:40:48;;;;;;;5.75;4.18;;;21.80;66.40;;;;;;5072429;28;20228;-60
2023/04/20 07:43:15;;;;;;;5.25;4.10;;;21.10;67.10;;;;;;5073206;28;20658;-60
2023/04/20 07:45:42;;;;;;;7.45;4.15;;;20.30;68.90;;;;;;5059687;28;20210;-60
2023/04/20 07:48:11;;;;;;;4.90;4.20;;;19.60;70.60;;;;;;5052904;28;20210;-60
2023/04/20 07:50:38;;;;;;;5.32;4.65;;;19.00;72.20;;;;;;5052536;28;20276;-59
2023/04/20 07:53:05;;;;;;;6.15;4.13;;;18.80;73.10;;;;;;5052631;28;20475;-59
2023/04/20 07:55:31;;;;;;;4.70;3.88;;;19.30;72.40;;;;;;5052270;28;20213;-59
2023/04/20 07:58:00;;;;;;;4.55;3.90;;;20.10;71.00;;;;;;5052281;28;20213;-59
2023/04/20 08:00:27;;;;;;;7.05;4.22;;;20.20;70.60;;;;;;5052848;28;20701;-59
2023/04/20 08:02:54;;;;;;;5.32;4.10;;;19.70;71.30;;;;;;5052236;28;20705;-60
2023/04/20 08:05:21;;;;;;;4.82;4.18;;;19.00;72.50;;;;;;5052306;28;20213;-59
2023/04/20 08:07:48;;;;;;;4.70;4.20;;;18.30;74.60;;;;;;5052254;28;20205;-59
2023/04/20 08:10:14;;;;;;;6.15;4.53;;;17.60;76.20;;;;;;5068029;28;20209;-59
2023/04/20 08:12:41;;;;;;;5.72;4.25;;;17.10;77.60;;;;;;5071871;28;20232;-59
2023/04/20 08:15:11;;;;;;;6.00;4.47;;;16.70;78.70;;;;;;5072611;28;20209;-59
2023/04/20 08:17:37;;;;;;;6.05;4.60;;;16.30;79.80;;;;;;5072084;28;20288;-59
2023/04/20 08:20:05;;;;;;;5.20;4.37;;;15.90;82.00;;;;;;5072023;28;20277;-59
2023/04/20 08:22:33;;;;;;;8.30;4.57;;;15.30;84.50;;;;;;5071044;28;20228;-59
2023/04/20 08:25:00;;;;;;;7.23;4.77;;;14.70;85.70;;;;;;5072439;28;20680;-59
2023/04/20 08:27:28;;;;;;;6.27;4.37;;;14.10;88.10;;;;;;5071602;28;20270;-58
2023/04/20 08:29:55;;;;;;;5.60;4.33;;;13.70;89.60;;;;;;5071886;28;20208;-58
2023/04/20 08:32:25;;;;;;;5.93;4.50;;;13.30;90.90;;;;;;5071403;28;20307;-59
2023/04/20 08:34:52;;;;;;;7.70;5.23;;;12.90;91.60;;;;;;5051572;28;20209;-59
2023/04/20 08:37:19;;;;;;;6.20;4.67;;;12.60;92.30;;;;;;5051888;28;20218;-59
2023/04/20 08:39:46;;;;;;;5.03;4.30;;;12.60;92.80;;;;;;5052776;28;20713;-60
2023/04/20 08:42:15;;;;;;;7.57;4.90;;;12.70;93.10;;;;;;5072478;28;20236;-62
2023/04/20 08:44:42;;;;;;;7.20;4.83;;;12.70;93.20;;;;;;5072006;28;20220;-62
2023/04/20 08:47:10;;;;;;;7.97;5.17;;;12.60;93.60;;;;;;5053625;28;20674;-62
2023/04/20 08:49:39;;;;;;;7.00;5.03;;;12.50;94.00;;;;;;5054743;28;20205;-63
2023/04/20 08:52:09;;;;;;;60.00;34.30;;;12.30;94.40;;;;;;5055504;28;20201;-61
2023/04/20 08:54:37;;;;;;;8.63;5.60;;;12.40;94.90;;;;;;5053804;28;20261;-61
2023/04/20 08:57:04;;;;;;;8.37;5.37;;;12.30;95.10;;;;;;5056296;28;20263;-62
2023/04/20 08:59:31;;;;;;;6.20;4.60;;;12.30;95.10;;;;;;5073318;28;20211;-64
2023/04/20 09:02:09;;;;;;;7.67;4.57;;;12.10;95.60;;;;;;5073783;28;20771;-64
2023/04/20 09:04:39;;;;;;;6.53;4.70;;;12.10;95.70;;;;;;5073374;28;20229;-63
2023/04/20 09:07:06;;;;;;;7.57;5.33;;;12.20;95.90;;;;;;5073129;28;20580;-62
2023/04/20 09:09:33;;;;;;;6.13;4.73;;;12.30;95.80;;;;;;5072357;28;20750;-62
2023/04/20 09:12:02;;;;;;;6.73;4.90;;;12.20;95.90;;;;;;5073515;28;20201;-61
2023/04/20 09:14:30;;;;;;;5.47;4.60;;;12.20;96.40;;;;;;5072676;28;20220;-61
2023/04/20 09:17:00;;;;;;;6.23;4.80;;;12.20;96.70;;;;;;5072327;28;20212;-61
2023/04/20 09:19:28;;;;;;;5.83;4.57;;;12.30;96.70;;;;;;5073215;28;20205;-61
2023/04/20 09:21:58;;;;;;;8.50;5.93;;;12.30;96.80;;;;;;5071585;28;20264;-61
2023/04/20 09:24:32;;;;;;;9.60;4.87;;;12.20;96.90;;;;;;5072215;28;20221;-61
2023/04/20 09:27:00;;;;;;;8.27;4.77;;;12.10;97.10;;;;;;5072029;28;20201;-61
2023/04/20 09:29:26;;;;;;;5.40;4.80;;;12.10;97.30;;;;;;5072485;28;20221;-61
2023/04/20 09:31:54;;;;;;;5.63;4.50;;;12.00;97.60;;;;;;5072145;28;20205;-61
2023/04/20 09:34:22;;;;;;;6.17;4.53;;;11.90;97.90;;;;;;5059149;28;20240;-61
2023/04/20 09:36:53;;;;;;;7.10;4.73;;;12.00;98.20;;;;;;5052351;28;20239;-61
2023/04/20 09:39:22;;;;;;;7.83;5.30;;;12.10;98.20;;;;;;5052445;28;20205;-61
2023/04/20 09:41:50;;;;;;;6.70;4.97;;;12.30;98.20;;;;;;5052456;28;20614;-61
2023/04/20 09:44:18;;;;;;;7.73;4.73;;;12.20;98.30;;;;;;5052598;28;20221;-61
2023/04/20 09:46:45;;;;;;;6.07;4.53;;;12.10;98.50;;;;;;5052511;28;20228;-62
2023/04/20 09:49:13;;;;;;;11.17;4.90;;;12.00;98.60;;;;;;5053494;28;20209;-62
2023/04/20 09:51:44;;;;;;;6.53;4.90;;;11.90;98.60;;;;;;5054079;28;20210;-62
2023/04/20 09:54:12;;;;;;;5.10;4.00;;;12.00;98.80;;;;;;5052985;28;20267;-62
2023/04/20 09:56:41;;;;;;;6.20;4.77;;;12.10;98.60;;;;;;5054051;28;20292;-60
2023/04/20 09:59:08;;;;;;;6.37;4.60;;;12.10;98.80;;;;;;5070704;28;20201;-61
2023/04/20 10:01:36;;;;;;;6.40;4.50;;;12.20;99.00;;;;;;5073249;28;20217;-60
2023/04/20 10:04:07;;;;;;;5.20;4.10;;;12.30;98.50;;;;;;5074276;28;20319;-61
2023/04/20 10:06:35;;;;;;;5.50;4.37;;;12.20;98.30;;;;;;5074007;28;20296;-60
2023/04/20 10:09:03;;;;;;;6.67;5.00;;;12.10;98.70;;;;;;5073685;28;20237;-61
2023/04/20 10:11:32;;;;;;;7.17;5.10;;;11.90;99.10;;;;;;5074036;28;20197;-61
2023/04/20 10:14:13;;;;;;;5.87;4.67;;;11.80;99.50;;;;;;5073827;28;20232;-61
2023/04/20 10:16:41;;;;;;;6.83;4.67;;;11.70;99.20;;;;;;5073578;28;20228;-60
2023/04/20 10:19:08;;;;;;;6.07;4.63;;;11.70;99.70;;;;;;5073479;28;20240;-62
2023/04/20 10:21:46;;;;;;;7.27;5.10;;;11.70;99.80;;;;;;5072836;28;20286;-61
2023/04/20 10:24:12;;;;;;;5.53;4.73;;;11.60;99.90;;;;;;5072877;28;20232;-61
2023/04/20 10:26:41;;;;;;;5.70;4.63;;;11.70;99.90;;;;;;5073460;28;20208;-61
2023/04/20 10:29:10;;;;;;;6.83;4.70;;;11.60;99.90;;;;;;5073528;28;20209;-61
2023/04/20 10:31:38;;;;;;;6.47;4.77;;;11.40;99.90;;;;;;5076877;28;20207;-61
2023/04/20 10:34:06;;;;;;;5.77;4.53;;;11.40;99.90;;;;;;5077144;28;20241;-61
2023/04/20 10:36:35;;;;;;;7.23;4.60;;;11.30;99.90;;;;;;5079394;28;20211;-61
2023/04/20 10:39:14;;;;;;;5.67;4.87;;;11.10;99.90;;;;;;5077848;28;20243;-63
2023/04/20 10:41:52;;;;;;;5.83;4.17;;;11.20;99.90;;;;;;5080050;28;20225;-61
2023/04/20 10:44:20;;;;;;;4.87;4.07;;;11.30;99.90;;;;;;5081188;28;20241;-61
2023/04/20 10:46:48;;;;;;;5.80;4.67;;;11.50;99.90;;;;;;5077765;28;20718;-61
2023/04/20 10:49:15;;;;;;;5.43;4.70;;;11.80;99.90;;;;;;5079210;28;20672;-61
2023/04/20 10:51:47;;;;;;;5.30;4.70;;;11.90;99.90;;;;;;5077766;28;20201;-61
2023/04/20 10:54:14;;;;;;;6.40;4.27;;;11.80;99.90;;;;;;5076296;28;20598;-60
2023/04/20 10:56:42;;;;;;;5.60;4.43;;;11.70;99.90;;;;;;5076870;28;20240;-65
2023/04/20 10:59:10;;;;;;;7.17;4.30;;;11.70;99.90;;;;;;5076553;28;20219;-62
2023/04/20 11:01:38;;;;;;;5.20;4.67;;;11.70;99.90;;;;;;5075738;28;20621;-60
2023/04/20 11:04:06;;;;;;;5.63;4.90;;;11.80;99.90;;;;;;5075734;28;20231;-61
2023/04/20 11:06:33;;;;;;;5.53;4.50;;;11.80;99.90;;;;;;5075732;28;20234;-61
2023/04/20 11:09:00;;;;;;;5.53;4.60;;;12.00;99.90;;;;;;5075285;28;20213;-60
2023/04/20 11:11:28;;;;;;;8.57;5.20;;;12.20;99.90;;;;;;5075466;28;20212;-59
2023/04/20 11:14:06;;;;;;;4.67;4.27;;;12.40;99.90;;;;;;5075810;28;20315;-59
2023/04/20 11:16:33;;;;;;;6.07;5.07;;;12.50;99.90;;;;;;5075525;28;20209;-62
2023/04/20 11:19:02;;;;;;;5.83;4.60;;;12.80;99.90;;;;;;5076626;28;20665;-60
2023/04/20 11:21:37;;;;;;;8.73;5.23;;;13.00;99.90;;;;;;5074523;28;20225;-60
2023/04/20 11:24:04;;;;;;;8.13;5.27;;;13.40;99.90;;;;;;5055317;28;20283;-61
2023/04/20 11:26:36;;;;;;;5.10;4.43;;;13.90;99.90;;;;;;5055768;28;20205;-62
2023/04/20 11:29:02;;;;;;;5.27;4.33;;;14.30;99.90;;;;;;5064279;28;20213;-61
2023/04/20 11:31:29;;;;;;;5.33;4.67;;;14.60;99.90;;;;;;5075697;28;20197;-66
2023/04/20 11:33:56;;;;;;;5.73;4.50;;;14.40;99.90;;;;;;5075174;28;20724;-61
2023/04/20 11:36:27;;;;;;;6.20;4.30;;;14.30;99.90;;;;;;5074996;28;20665;-64
2023/04/20 11:38:54;;;;;;;9.10;4.23;;;14.40;99.90;;;;;;5072359;28;20312;-62
2023/04/20 11:41:22;;;;;;;4.37;3.93;;;14.20;99.90;;;;;;5074157;28;20247;-63
2023/04/20 11:43:50;;;;;;;6.20;4.00;;;13.80;99.90;;;;;;5065819;28;20455;-63
2023/04/20 11:46:19;;;;;;;5.00;4.10;;;13.80;99.80;;;;;;5070879;28;20243;-61
2023/04/20 11:48:46;;;;;;;7.30;4.23;;;13.80;99.90;;;;;;5074786;28;20235;-60
2023/04/20 11:51:13;;;;;;;4.50;3.93;;;13.90;99.90;;;;;;5074932;28;20241;-63
2023/04/20 11:53:41;;;;;;;4.83;3.87;;;14.20;99.60;;;;;;5075885;28;20221;-62
2023/04/20 11:56:09;;;;;;;5.80;3.73;;;14.40;98.80;;;;;;5075616;28;20584;-63
2023/04/20 11:58:37;;;;;;;5.40;3.93;;;14.40;98.00;;;;;;5075106;28;20796;-62
2023/04/20 12:01:04;;;;;;;4.80;4.10;;;14.20;98.60;;;;;;5075434;28;20239;-62
2023/04/20 12:03:32;;;;;;;4.50;3.80;;;13.80;98.60;;;;;;5075367;28;20293;-62
2023/04/20 12:05:59;;;;;;;4.10;3.47;;;13.40;98.60;;;;;;5075015;28;20212;-63
2023/04/20 12:08:25;;;;;;;4.57;3.90;;;12.90;99.40;;;;;;5075254;28;20232;-63
2023/04/20 12:10:54;;;;;;;5.00;4.07;;;12.70;99.80;;;;;;5074764;28;20640;-62
2023/04/20 12:13:21;;;;;;;4.93;3.80;;;12.40;99.90;;;;;;5073959;28;20774;-63
2023/04/20 12:15:48;;;;;;;6.90;3.80;;;12.20;99.90;;;;;;5074175;28;20691;-62
2023/04/20 12:18:15;;;;;;;6.53;4.10;;;12.20;99.90;;;;;;5074394;28;20209;-63
2023/04/20 12:20:44;;;;;;;5.30;4.13;;;12.20;99.90;;;;;;5074312;28;20212;-63
2023/04/20 12:23:10;;;;;;;4.47;4.07;;;12.10;99.90;;;;;;5062489;28;20300;-61
2023/04/20 12:25:37;;;;;;;4.73;4.10;;;11.90;99.90;;;;;;5052303;28;20209;-61
2023/04/20 12:28:06;;;;;;;5.50;4.00;;;11.80;99.90;;;;;;5052762;28;20205;-61
2023/04/20 12:30:34;;;;;;;5.70;4.10;;;11.70;99.90;;;;;;5052696;28;20571;-61
2023/04/20 12:33:01;;;;;;;5.10;4.40;;;11.70;99.90;;;;;;5052246;28;20268;-63
2023/04/20 12:35:28;;;;;;;5.40;3.90;;;11.70;99.90;;;;;;5053836;28;20208;-63
2023/04/20 12:37:55;;;;;;;4.80;4.03;;;11.70;99.90;;;;;;5053320;28;20292;-65
2023/04/20 12:40:23;;;;;;;4.83;4.07;;;11.80;99.90;;;;;;5054077;28;20205;-61
2023/04/20 12:42:50;;;;;;;5.27;3.83;;;11.90;99.90;;;;;;5053430;28;20238;-60
2023/04/20 12:45:18;;;;;;;6.50;4.10;;;12.00;99.90;;;;;;5053933;28;20213;-61
2023/04/20 12:47:44;;;;;;;6.20;4.33;;;12.10;99.90;;;;;;5054043;28;20210;-62
2023/04/20 12:50:11;;;;;;;4.37;3.97;;;12.00;99.90;;;;;;5053951;28;20213;-61
2023/04/20 12:52:39;;;;;;;5.07;4.20;;;12.10;99.90;;;;;;5053179;28;20201;-61